sensor_id;sensor_type;location;lat;lon;timestamp;temperature;humidity
70807;DHT22;58882;52.170;5.386;2024-01-15T00:00:21;11.20;48.70
70807;DHT22;58882;52.170;5.386;2024-01-15T00:02:48;11.20;48.70
70807;DHT22;58882;52.170;5.386;2024-01-15T00:05:15;11.10;48.60
70807;DHT22;58882;52.170;5.386;2024-01-15T00:07:42;11.10;48.60
70807;DHT22;58882;52.170;5.386;2024-01-15T00:10:09;11.10;48.60
70807;DHT22;58882;52.170;5.386;2024-01-15T00:12:36;11.10;48.50
70807;DHT22;58882;52.170;5.386;2024-01-15T00:15:03;11.10;48.50
70807;DHT22;58882;52.170;5.386;2024-01-15T00:17:31;11.00;48.40
70807;DHT22;58882;52.170;5.386;2024-01-15T00:19:58;11.00;48.40
70807;DHT22;58882;52.170;5.386;2024-01-15T00:22:26;11.00;48.50
70807;DHT22;58882;52.170;5.386;2024-01-15T00:24:54;11.00;48.40
70807;DHT22;58882;52.170;5.386;2024-01-15T00:27:21;10.90;48.30
70807;DHT22;58882;52.170;5.386;2024-01-15T00:29:48;10.90;48.30
70807;DHT22;58882;52.170;5.386;2024-01-15T00:32:17;10.90;48.20
70807;DHT22;58882;52.170;5.386;2024-01-15T00:34:43;10.80;48.10
70807;DHT22;58882;52.170;5.386;2024-01-15T00:37:11;10.80;48.20
70807;DHT22;58882;52.170;5.386;2024-01-15T00:39:38;10.70;48.20
70807;DHT22;58882;52.170;5.386;2024-01-15T00:42:05;10.70;48.20
70807;DHT22;58882;52.170;5.386;2024-01-15T00:44:32;10.70;48.30
70807;DHT22;58882;52.170;5.386;2024-01-15T00:46:58;10.70;48.10
70807;DHT22;58882;52.170;5.386;2024-01-15T00:49:27;10.70;48.10
70807;DHT22;58882;52.170;5.386;2024-01-15T00:51:54;10.70;48.10
70807;DHT22;58882;52.170;5.386;2024-01-15T00:54:21;10.70;48.20
70807;DHT22;58882;52.170;5.386;2024-01-15T00:56:48;10.70;48.10
70807;DHT22;58882;52.170;5.386;2024-01-15T00:59:14;10.70;48.10
70807;DHT22;58882;52.170;5.386;2024-01-15T01:01:42;10.70;47.90
70807;DHT22;58882;52.170;5.386;2024-01-15T01:04:10;10.70;47.90
70807;DHT22;58882;52.170;5.386;2024-01-15T01:06:37;10.70;47.80
70807;DHT22;58882;52.170;5.386;2024-01-15T01:09:05;10.70;47.70
70807;DHT22;58882;52.170;5.386;2024-01-15T01:11:32;10.70;47.80
70807;DHT22;58882;52.170;5.386;2024-01-15T01:13:58;10.70;47.70
70807;DHT22;58882;52.170;5.386;2024-01-15T01:16:25;10.70;47.50
70807;DHT22;58882;52.170;5.386;2024-01-15T01:18:52;10.70;47.60
70807;DHT22;58882;52.170;5.386;2024-01-15T01:21:19;10.70;47.70
70807;DHT22;58882;52.170;5.386;2024-01-15T01:23:46;10.70;47.70
70807;DHT22;58882;52.170;5.386;2024-01-15T01:26:16;10.70;47.70
70807;DHT22;58882;52.170;5.386;2024-01-15T01:28:43;10.70;47.70
70807;DHT22;58882;52.170;5.386;2024-01-15T01:31:10;10.70;47.60
70807;DHT22;58882;52.170;5.386;2024-01-15T01:33:38;10.70;47.60
70807;DHT22;58882;52.170;5.386;2024-01-15T01:36:09;10.70;47.60
70807;DHT22;58882;52.170;5.386;2024-01-15T01:38:37;10.70;47.70
70807;DHT22;58882;52.170;5.386;2024-01-15T01:41:04;10.70;47.90
70807;DHT22;58882;52.170;5.386;2024-01-15T01:43:31;10.70;47.90
70807;DHT22;58882;52.170;5.386;2024-01-15T01:46:00;10.70;47.90
70807;DHT22;58882;52.170;5.386;2024-01-15T01:48:27;10.70;47.80
70807;DHT22;58882;52.170;5.386;2024-01-15T01:50:58;10.70;47.70
70807;DHT22;58882;52.170;5.386;2024-01-15T01:53:26;10.70;47.70
70807;DHT22;58882;52.170;5.386;2024-01-15T01:55:54;10.70;47.80
70807;DHT22;58882;52.170;5.386;2024-01-15T01:58:22;10.70;47.80
70807;DHT22;58882;52.170;5.386;2024-01-15T02:00:49;10.70;47.90
70807;DHT22;58882;52.170;5.386;2024-01-15T02:03:17;10.70;47.90
70807;DHT22;58882;52.170;5.386;2024-01-15T02:05:43;10.70;47.90
70807;DHT22;58882;52.170;5.386;2024-01-15T02:08:13;10.60;47.90
70807;DHT22;58882;52.170;5.386;2024-01-15T02:10:40;10.60;47.80
70807;DHT22;58882;52.170;5.386;2024-01-15T02:13:07;10.60;48.00
70807;DHT22;58882;52.170;5.386;2024-01-15T02:15:34;10.50;48.00
70807;DHT22;58882;52.170;5.386;2024-01-15T02:18:03;10.50;48.50
70807;DHT22;58882;52.170;5.386;2024-01-15T02:20:31;10.40;48.70
70807;DHT22;58882;52.170;5.386;2024-01-15T02:23:16;10.40;49.00
70807;DHT22;58882;52.170;5.386;2024-01-15T02:25:45;10.30;49.30
70807;DHT22;58882;52.170;5.386;2024-01-15T02:28:14;10.30;49.40
70807;DHT22;58882;52.170;5.386;2024-01-15T02:30:41;10.20;49.60
70807;DHT22;58882;52.170;5.386;2024-01-15T02:33:10;10.20;49.70
70807;DHT22;58882;52.170;5.386;2024-01-15T02:35:38;10.20;49.80
70807;DHT22;58882;52.170;5.386;2024-01-15T02:38:06;10.10;50.10
70807;DHT22;58882;52.170;5.386;2024-01-15T02:40:33;10.10;50.30
70807;DHT22;58882;52.170;5.386;2024-01-15T02:43:00;10.10;50.30
70807;DHT22;58882;52.170;5.386;2024-01-15T02:45:27;10.20;50.40
70807;DHT22;58882;52.170;5.386;2024-01-15T02:47:54;10.20;50.40
70807;DHT22;58882;52.170;5.386;2024-01-15T02:50:21;10.20;50.40
70807;DHT22;58882;52.170;5.386;2024-01-15T02:52:48;10.30;50.50
70807;DHT22;58882;52.170;5.386;2024-01-15T02:55:15;10.30;50.50
70807;DHT22;58882;52.170;5.386;2024-01-15T02:57:42;10.30;50.30
70807;DHT22;58882;52.170;5.386;2024-01-15T03:00:10;10.40;50.40
70807;DHT22;58882;52.170;5.386;2024-01-15T03:02:38;10.40;50.40
70807;DHT22;58882;52.170;5.386;2024-01-15T03:05:13;10.40;50.30
70807;DHT22;58882;52.170;5.386;2024-01-15T03:07:40;10.40;50.40
70807;DHT22;58882;52.170;5.386;2024-01-15T03:10:07;10.40;50.50
70807;DHT22;58882;52.170;5.386;2024-01-15T03:12:34;10.50;50.50
70807;DHT22;58882;52.170;5.386;2024-01-15T03:15:01;10.50;50.50
70807;DHT22;58882;52.170;5.386;2024-01-15T03:17:29;10.50;50.50
70807;DHT22;58882;52.170;5.386;2024-01-15T03:19:56;10.50;50.40
70807;DHT22;58882;52.170;5.386;2024-01-15T03:22:23;10.50;50.50
70807;DHT22;58882;52.170;5.386;2024-01-15T03:24:50;10.50;50.50
70807;DHT22;58882;52.170;5.386;2024-01-15T03:27:16;10.50;50.60
70807;DHT22;58882;52.170;5.386;2024-01-15T03:29:43;10.50;50.60
70807;DHT22;58882;52.170;5.386;2024-01-15T03:32:10;10.60;50.80
70807;DHT22;58882;52.170;5.386;2024-01-15T03:34:37;10.60;50.80
70807;DHT22;58882;52.170;5.386;2024-01-15T03:37:05;10.60;50.80
70807;DHT22;58882;52.170;5.386;2024-01-15T03:39:32;10.60;50.80
70807;DHT22;58882;52.170;5.386;2024-01-15T03:41:59;10.70;51.00
70807;DHT22;58882;52.170;5.386;2024-01-15T03:44:26;10.70;50.90
70807;DHT22;58882;52.170;5.386;2024-01-15T03:46:52;10.70;50.90
70807;DHT22;58882;52.170;5.386;2024-01-15T03:49:19;10.70;50.90
70807;DHT22;58882;52.170;5.386;2024-01-15T03:51:46;10.70;51.00
70807;DHT22;58882;52.170;5.386;2024-01-15T03:54:13;10.70;51.00
70807;DHT22;58882;52.170;5.386;2024-01-15T03:56:42;10.70;51.10
70807;DHT22;58882;52.170;5.386;2024-01-15T03:59:08;10.70;51.10
70807;DHT22;58882;52.170;5.386;2024-01-15T04:01:35;10.80;51.10
70807;DHT22;58882;52.170;5.386;2024-01-15T04:04:02;10.80;51.00
70807;DHT22;58882;52.170;5.386;2024-01-15T04:06:29;10.70;50.80
70807;DHT22;58882;52.170;5.386;2024-01-15T04:08:56;10.70;50.70
70807;DHT22;58882;52.170;5.386;2024-01-15T04:11:23;10.70;50.70
70807;DHT22;58882;52.170;5.386;2024-01-15T04:13:50;10.60;51.80
70807;DHT22;58882;52.170;5.386;2024-01-15T04:16:16;10.60;50.80
70807;DHT22;58882;52.170;5.386;2024-01-15T04:18:43;10.60;50.80
70807;DHT22;58882;52.170;5.386;2024-01-15T04:21:10;10.60;50.90
70807;DHT22;58882;52.170;5.386;2024-01-15T04:23:39;10.60;50.90
70807;DHT22;58882;52.170;5.386;2024-01-15T04:26:05;10.50;50.90
70807;DHT22;58882;52.170;5.386;2024-01-15T04:28:32;10.50;50.90
70807;DHT22;58882;52.170;5.386;2024-01-15T04:30:59;10.50;50.90
70807;DHT22;58882;52.170;5.386;2024-01-15T04:33:26;10.50;50.90
70807;DHT22;58882;52.170;5.386;2024-01-15T04:35:53;10.40;50.90
70807;DHT22;58882;52.170;5.386;2024-01-15T04:38:20;10.40;50.90
70807;DHT22;58882;52.170;5.386;2024-01-15T04:40:46;10.30;50.90
70807;DHT22;58882;52.170;5.386;2024-01-15T04:43:13;10.30;51.00
70807;DHT22;58882;52.170;5.386;2024-01-15T04:45:42;10.30;51.00
70807;DHT22;58882;52.170;5.386;2024-01-15T04:48:08;10.20;51.00
70807;DHT22;58882;52.170;5.386;2024-01-15T04:50:35;10.20;51.10
70807;DHT22;58882;52.170;5.386;2024-01-15T04:53:02;10.20;51.10
70807;DHT22;58882;52.170;5.386;2024-01-15T04:55:29;10.10;51.20
70807;DHT22;58882;52.170;5.386;2024-01-15T04:57:56;10.20;51.40
70807;DHT22;58882;52.170;5.386;2024-01-15T05:00:23;10.10;51.40
70807;DHT22;58882;52.170;5.386;2024-01-15T05:02:50;10.10;51.50
70807;DHT22;58882;52.170;5.386;2024-01-15T05:05:17;10.10;51.50
70807;DHT22;58882;52.170;5.386;2024-01-15T05:07:44;10.10;51.50
70807;DHT22;58882;52.170;5.386;2024-01-15T05:10:10;10.10;51.70
70807;DHT22;58882;52.170;5.386;2024-01-15T05:12:37;10.10;51.80
70807;DHT22;58882;52.170;5.386;2024-01-15T05:15:04;10.10;51.70
70807;DHT22;58882;52.170;5.386;2024-01-15T05:17:31;10.10;51.60
70807;DHT22;58882;52.170;5.386;2024-01-15T05:19:58;10.10;51.70
70807;DHT22;58882;52.170;5.386;2024-01-15T05:22:26;10.10;51.60
70807;DHT22;58882;52.170;5.386;2024-01-15T05:24:52;10.10;51.80
70807;DHT22;58882;52.170;5.386;2024-01-15T05:27:19;10.20;51.80
70807;DHT22;58882;52.170;5.386;2024-01-15T05:29:46;10.20;52.80
70807;DHT22;58882;52.170;5.386;2024-01-15T05:32:13;10.20;51.80
70807;DHT22;58882;52.170;5.386;2024-01-15T05:34:40;10.30;51.80
70807;DHT22;58882;52.170;5.386;2024-01-15T05:37:07;10.30;51.90
70807;DHT22;58882;52.170;5.386;2024-01-15T05:39:34;10.30;51.90
70807;DHT22;58882;52.170;5.386;2024-01-15T05:42:00;10.30;51.80
70807;DHT22;58882;52.170;5.386;2024-01-15T05:44:27;10.30;51.80
70807;DHT22;58882;52.170;5.386;2024-01-15T05:46:54;10.40;51.90
70807;DHT22;58882;52.170;5.386;2024-01-15T05:49:21;10.40;51.70
70807;DHT22;58882;52.170;5.386;2024-01-15T05:51:48;10.40;51.70
70807;DHT22;58882;52.170;5.386;2024-01-15T05:54:15;10.40;51.80
70807;DHT22;58882;52.170;5.386;2024-01-15T05:56:42;10.50;51.90
70807;DHT22;58882;52.170;5.386;2024-01-15T05:59:09;10.50;51.80
70807;DHT22;58882;52.170;5.386;2024-01-15T06:01:41;10.50;51.90
70807;DHT22;58882;52.170;5.386;2024-01-15T06:04:08;10.50;51.80
70807;DHT22;58882;52.170;5.386;2024-01-15T06:06:35;10.50;51.80
70807;DHT22;58882;52.170;5.386;2024-01-15T06:09:02;10.50;51.60
70807;DHT22;58882;52.170;5.386;2024-01-15T06:11:32;10.50;51.70
70807;DHT22;58882;52.170;5.386;2024-01-15T06:13:59;10.50;51.70
70807;DHT22;58882;52.170;5.386;2024-01-15T06:16:28;10.50;51.80
70807;DHT22;58882;52.170;5.386;2024-01-15T06:18:54;10.50;51.70
70807;DHT22;58882;52.170;5.386;2024-01-15T06:21:21;10.50;51.60
70807;DHT22;58882;52.170;5.386;2024-01-15T06:23:48;10.50;51.70
70807;DHT22;58882;52.170;5.386;2024-01-15T06:26:15;10.60;51.60
70807;DHT22;58882;52.170;5.386;2024-01-15T06:28:42;10.60;51.50
70807;DHT22;58882;52.170;5.386;2024-01-15T06:31:09;10.60;51.40
70807;DHT22;58882;52.170;5.386;2024-01-15T06:33:36;10.60;51.30
70807;DHT22;58882;52.170;5.386;2024-01-15T06:36:04;10.60;51.40
70807;DHT22;58882;52.170;5.386;2024-01-15T06:38:32;10.60;51.40
70807;DHT22;58882;52.170;5.386;2024-01-15T06:40:59;10.60;51.50
70807;DHT22;58882;52.170;5.386;2024-01-15T06:43:26;10.60;51.50
70807;DHT22;58882;52.170;5.386;2024-01-15T06:45:52;10.60;51.40
70807;DHT22;58882;52.170;5.386;2024-01-15T06:48:19;10.70;51.50
70807;DHT22;58882;52.170;5.386;2024-01-15T06:50:46;10.70;51.30
70807;DHT22;58882;52.170;5.386;2024-01-15T06:53:13;10.70;51.10
70807;DHT22;58882;52.170;5.386;2024-01-15T06:55:40;10.60;50.90
70807;DHT22;58882;52.170;5.386;2024-01-15T06:58:07;10.60;51.10
70807;DHT22;58882;52.170;5.386;2024-01-15T07:00:33;10.60;51.00
70807;DHT22;58882;52.170;5.386;2024-01-15T07:03:01;10.60;51.10
70807;DHT22;58882;52.170;5.386;2024-01-15T07:05:27;10.60;51.10
70807;DHT22;58882;52.170;5.386;2024-01-15T07:07:56;10.60;51.10
70807;DHT22;58882;52.170;5.386;2024-01-15T07:10:23;10.60;51.50
70807;DHT22;58882;52.170;5.386;2024-01-15T07:12:50;10.70;51.60
70807;DHT22;58882;52.170;5.386;2024-01-15T07:15:17;11.00;51.40
70807;DHT22;58882;52.170;5.386;2024-01-15T07:17:44;11.10;51.00
70807;DHT22;58882;52.170;5.386;2024-01-15T07:20:11;11.30;50.70
70807;DHT22;58882;52.170;5.386;2024-01-15T07:22:38;11.40;50.30
70807;DHT22;58882;52.170;5.386;2024-01-15T07:25:05;11.50;50.00
70807;DHT22;58882;52.170;5.386;2024-01-15T07:27:33;11.50;49.80
70807;DHT22;58882;52.170;5.386;2024-01-15T07:30:00;11.60;50.00
70807;DHT22;58882;52.170;5.386;2024-01-15T07:32:29;11.60;49.80
70807;DHT22;58882;52.170;5.386;2024-01-15T07:34:57;11.70;49.70
70807;DHT22;58882;52.170;5.386;2024-01-15T07:37:26;11.70;49.50
70807;DHT22;58882;52.170;5.386;2024-01-15T07:39:52;11.80;49.40
70807;DHT22;58882;52.170;5.386;2024-01-15T07:42:19;11.90;49.30
70807;DHT22;58882;52.170;5.386;2024-01-15T07:44:46;11.90;49.20
70807;DHT22;58882;52.170;5.386;2024-01-15T07:47:13;12.00;49.00
70807;DHT22;58882;52.170;5.386;2024-01-15T07:49:40;12.00;48.60
70807;DHT22;58882;52.170;5.386;2024-01-15T07:52:07;12.00;48.50
70807;DHT22;58882;52.170;5.386;2024-01-15T07:54:34;12.00;48.40
70807;DHT22;58882;52.170;5.386;2024-01-15T07:57:02;12.00;48.30
70807;DHT22;58882;52.170;5.386;2024-01-15T07:59:30;12.00;48.30
70807;DHT22;58882;52.170;5.386;2024-01-15T08:01:58;12.00;48.30
70807;DHT22;58882;52.170;5.386;2024-01-15T08:04:26;12.00;48.20
70807;DHT22;58882;52.170;5.386;2024-01-15T08:06:53;12.00;48.20
70807;DHT22;58882;52.170;5.386;2024-01-15T08:09:20;12.10;48.10
70807;DHT22;58882;52.170;5.386;2024-01-15T08:11:48;12.10;48.10
70807;DHT22;58882;52.170;5.386;2024-01-15T08:14:16;12.20;48.00
70807;DHT22;58882;52.170;5.386;2024-01-15T08:16:42;12.30;47.90
70807;DHT22;58882;52.170;5.386;2024-01-15T08:19:10;12.40;47.70
70807;DHT22;58882;52.170;5.386;2024-01-15T08:21:37;12.40;47.50
70807;DHT22;58882;52.170;5.386;2024-01-15T08:24:05;12.50;47.30
70807;DHT22;58882;52.170;5.386;2024-01-15T08:26:32;12.60;47.40
70807;DHT22;58882;52.170;5.386;2024-01-15T08:28:59;12.60;48.10
70807;DHT22;58882;52.170;5.386;2024-01-15T08:31:26;12.70;46.90
70807;DHT22;58882;52.170;5.386;2024-01-15T08:33:54;12.70;46.80
70807;DHT22;58882;52.170;5.386;2024-01-15T08:36:23;12.70;46.40
70807;DHT22;58882;52.170;5.386;2024-01-15T08:38:51;12.60;46.20
70807;DHT22;58882;52.170;5.386;2024-01-15T08:41:18;12.60;46.30
70807;DHT22;58882;52.170;5.386;2024-01-15T08:43:45;12.50;46.20
70807;DHT22;58882;52.170;5.386;2024-01-15T08:46:11;12.50;46.30
70807;DHT22;58882;52.170;5.386;2024-01-15T08:48:38;12.40;46.40
70807;DHT22;58882;52.170;5.386;2024-01-15T08:51:06;12.40;46.50
70807;DHT22;58882;52.170;5.386;2024-01-15T08:53:35;12.40;46.50
70807;DHT22;58882;52.170;5.386;2024-01-15T08:56:01;12.40;47.40
70807;DHT22;58882;52.170;5.386;2024-01-15T08:58:28;12.50;46.40
70807;DHT22;58882;52.170;5.386;2024-01-15T09:00:55;12.50;46.30
70807;DHT22;58882;52.170;5.386;2024-01-15T09:03:23;12.60;46.30
70807;DHT22;58882;52.170;5.386;2024-01-15T09:05:50;12.60;46.30
70807;DHT22;58882;52.170;5.386;2024-01-15T09:08:18;12.80;46.10
70807;DHT22;58882;52.170;5.386;2024-01-15T09:10:45;12.90;45.80
70807;DHT22;58882;52.170;5.386;2024-01-15T09:13:12;13.00;45.60
70807;DHT22;58882;52.170;5.386;2024-01-15T09:15:39;13.00;45.50
70807;DHT22;58882;52.170;5.386;2024-01-15T09:18:06;13.00;45.30
70807;DHT22;58882;52.170;5.386;2024-01-15T09:20:34;13.00;45.00
70807;DHT22;58882;52.170;5.386;2024-01-15T09:23:01;13.00;44.90
70807;DHT22;58882;52.170;5.386;2024-01-15T09:25:29;13.00;44.90
70807;DHT22;58882;52.170;5.386;2024-01-15T09:27:56;13.00;45.00
70807;DHT22;58882;52.170;5.386;2024-01-15T09:30:23;12.90;45.00
70807;DHT22;58882;52.170;5.386;2024-01-15T09:32:50;13.00;45.00
70807;DHT22;58882;52.170;5.386;2024-01-15T09:35:17;13.00;44.90
70807;DHT22;58882;52.170;5.386;2024-01-15T09:37:44;13.00;44.90
70807;DHT22;58882;52.170;5.386;2024-01-15T09:40:14;13.10;44.80
70807;DHT22;58882;52.170;5.386;2024-01-15T09:42:43;13.10;44.80
70807;DHT22;58882;52.170;5.386;2024-01-15T09:45:10;13.30;44.90
70807;DHT22;58882;52.170;5.386;2024-01-15T09:47:37;13.50;44.50
70807;DHT22;58882;52.170;5.386;2024-01-15T09:50:10;13.70;44.00
70807;DHT22;58882;52.170;5.386;2024-01-15T09:52:38;13.70;43.60
70807;DHT22;58882;52.170;5.386;2024-01-15T09:55:05;13.80;43.60
70807;DHT22;58882;52.170;5.386;2024-01-15T09:57:33;13.70;43.30
70807;DHT22;58882;52.170;5.386;2024-01-15T10:00:01;13.80;43.30
70807;DHT22;58882;52.170;5.386;2024-01-15T10:02:31;13.80;43.30
70807;DHT22;58882;52.170;5.386;2024-01-15T10:04:58;13.70;43.20
70807;DHT22;58882;52.170;5.386;2024-01-15T10:07:25;13.80;43.20
70807;DHT22;58882;52.170;5.386;2024-01-15T10:09:53;13.90;43.40
70807;DHT22;58882;52.170;5.386;2024-01-15T10:12:22;14.10;43.20
70807;DHT22;58882;52.170;5.386;2024-01-15T10:14:50;14.20;42.70
70807;DHT22;58882;52.170;5.386;2024-01-15T10:17:17;14.30;43.40
70807;DHT22;58882;52.170;5.386;2024-01-15T10:19:47;14.30;42.40
70807;DHT22;58882;52.170;5.386;2024-01-15T10:22:16;14.30;42.30
70807;DHT22;58882;52.170;5.386;2024-01-15T10:24:45;14.30;42.30
70807;DHT22;58882;52.170;5.386;2024-01-15T10:27:15;14.40;42.50
70807;DHT22;58882;52.170;5.386;2024-01-15T10:29:42;14.50;42.10
70807;DHT22;58882;52.170;5.386;2024-01-15T10:32:11;14.40;41.90
70807;DHT22;58882;52.170;5.386;2024-01-15T10:34:39;14.40;41.90
70807;DHT22;58882;52.170;5.386;2024-01-15T10:37:10;14.30;41.90
70807;DHT22;58882;52.170;5.386;2024-01-15T10:39:37;14.30;41.90
70807;DHT22;58882;52.170;5.386;2024-01-15T10:42:05;14.20;41.90
70807;DHT22;58882;52.170;5.386;2024-01-15T10:44:33;14.10;42.00
70807;DHT22;58882;52.170;5.386;2024-01-15T10:47:00;14.10;42.20
70807;DHT22;58882;52.170;5.386;2024-01-15T10:49:27;14.10;42.50
70807;DHT22;58882;52.170;5.386;2024-01-15T10:52:01;14.20;42.50
70807;DHT22;58882;52.170;5.386;2024-01-15T10:54:29;14.20;42.10
70807;DHT22;58882;52.170;5.386;2024-01-15T10:56:56;14.20;42.20
70807;DHT22;58882;52.170;5.386;2024-01-15T10:59:24;14.20;42.10
70807;DHT22;58882;52.170;5.386;2024-01-15T11:01:52;14.20;43.00
70807;DHT22;58882;52.170;5.386;2024-01-15T11:04:22;14.10;41.80
70807;DHT22;58882;52.170;5.386;2024-01-15T11:06:53;14.00;42.10
70807;DHT22;58882;52.170;5.386;2024-01-15T11:09:23;14.00;42.20
70807;DHT22;58882;52.170;5.386;2024-01-15T11:12:14;13.90;42.20
70807;DHT22;58882;52.170;5.386;2024-01-15T11:14:47;13.80;42.40
70807;DHT22;58882;52.170;5.386;2024-01-15T11:17:15;13.70;42.50
70807;DHT22;58882;52.170;5.386;2024-01-15T11:19:44;13.60;42.60
70807;DHT22;58882;52.170;5.386;2024-01-15T11:24:57;13.30;43.00
70807;DHT22;58882;52.170;5.386;2024-01-15T11:27:49;13.30;43.10
70807;DHT22;58882;52.170;5.386;2024-01-15T11:30:21;13.20;43.20
70807;DHT22;58882;52.170;5.386;2024-01-15T11:32:51;13.10;43.30
70807;DHT22;58882;52.170;5.386;2024-01-15T11:35:18;13.00;43.40
70807;DHT22;58882;52.170;5.386;2024-01-15T11:40:20;13.00;43.60
70807;DHT22;58882;52.170;5.386;2024-01-15T11:42:48;13.00;43.50
70807;DHT22;58882;52.170;5.386;2024-01-15T11:45:19;12.90;43.40
70807;DHT22;58882;52.170;5.386;2024-01-15T11:48:17;12.80;43.60
70807;DHT22;58882;52.170;5.386;2024-01-15T11:50:49;12.80;43.80
70807;DHT22;58882;52.170;5.386;2024-01-15T11:53:33;12.80;43.80
70807;DHT22;58882;52.170;5.386;2024-01-15T11:56:02;12.80;43.90
70807;DHT22;58882;52.170;5.386;2024-01-15T11:58:30;12.80;43.80
70807;DHT22;58882;52.170;5.386;2024-01-15T12:00:57;12.90;43.70
70807;DHT22;58882;52.170;5.386;2024-01-15T12:03:25;12.80;43.80
70807;DHT22;58882;52.170;5.386;2024-01-15T12:05:52;12.80;43.90
70807;DHT22;58882;52.170;5.386;2024-01-15T12:08:23;12.90;43.90
70807;DHT22;58882;52.170;5.386;2024-01-15T12:10:50;12.90;43.80
70807;DHT22;58882;52.170;5.386;2024-01-15T12:13:18;12.90;43.80
70807;DHT22;58882;52.170;5.386;2024-01-15T12:15:47;12.80;43.90
70807;DHT22;58882;52.170;5.386;2024-01-15T12:18:17;12.90;44.10
70807;DHT22;58882;52.170;5.386;2024-01-15T12:20:45;12.90;44.10
70807;DHT22;58882;52.170;5.386;2024-01-15T12:23:17;13.00;43.90
70807;DHT22;58882;52.170;5.386;2024-01-15T12:25:44;13.00;44.00
70807;DHT22;58882;52.170;5.386;2024-01-15T12:28:12;13.00;44.00
70807;DHT22;58882;52.170;5.386;2024-01-15T12:30:39;13.10;43.90
70807;DHT22;58882;52.170;5.386;2024-01-15T12:33:07;13.10;43.90
70807;DHT22;58882;52.170;5.386;2024-01-15T12:35:37;13.10;43.80
70807;DHT22;58882;52.170;5.386;2024-01-15T12:38:04;13.10;43.80
70807;DHT22;58882;52.170;5.386;2024-01-15T12:40:33;13.10;43.80
70807;DHT22;58882;52.170;5.386;2024-01-15T12:43:05;13.10;43.70
70807;DHT22;58882;52.170;5.386;2024-01-15T12:45:33;13.10;43.70
70807;DHT22;58882;52.170;5.386;2024-01-15T12:48:02;13.20;43.80
70807;DHT22;58882;52.170;5.386;2024-01-15T12:50:30;13.20;43.60
70807;DHT22;58882;52.170;5.386;2024-01-15T12:52:57;13.20;43.30
70807;DHT22;58882;52.170;5.386;2024-01-15T12:55:26;13.20;43.20
70807;DHT22;58882;52.170;5.386;2024-01-15T12:57:53;13.10;43.20
70807;DHT22;58882;52.170;5.386;2024-01-15T13:00:21;13.10;43.20
70807;DHT22;58882;52.170;5.386;2024-01-15T13:02:48;13.10;43.30
70807;DHT22;58882;52.170;5.386;2024-01-15T13:05:17;13.00;43.40
70807;DHT22;58882;52.170;5.386;2024-01-15T13:07:45;13.00;43.40
70807;DHT22;58882;52.170;5.386;2024-01-15T13:10:12;13.00;43.50
70807;DHT22;58882;52.170;5.386;2024-01-15T13:12:40;12.90;43.50
70807;DHT22;58882;52.170;5.386;2024-01-15T13:15:08;12.80;43.60
70807;DHT22;58882;52.170;5.386;2024-01-15T13:17:40;12.80;43.60
70807;DHT22;58882;52.170;5.386;2024-01-15T13:20:08;12.70;43.70
70807;DHT22;58882;52.170;5.386;2024-01-15T13:22:37;12.70;43.70
70807;DHT22;58882;52.170;5.386;2024-01-15T13:25:07;12.70;43.90
70807;DHT22;58882;52.170;5.386;2024-01-15T13:27:35;12.60;44.00
70807;DHT22;58882;52.170;5.386;2024-01-15T13:30:03;12.70;44.20
70807;DHT22;58882;52.170;5.386;2024-01-15T13:32:30;12.70;44.10
70807;DHT22;58882;52.170;5.386;2024-01-15T13:34:57;12.80;44.10
70807;DHT22;58882;52.170;5.386;2024-01-15T13:37:24;12.80;44.10
70807;DHT22;58882;52.170;5.386;2024-01-15T13:39:52;12.90;44.10
70807;DHT22;58882;52.170;5.386;2024-01-15T13:42:20;12.90;44.00
70807;DHT22;58882;52.170;5.386;2024-01-15T13:44:50;13.00;44.00
70807;DHT22;58882;52.170;5.386;2024-01-15T13:47:17;13.10;43.90
70807;DHT22;58882;52.170;5.386;2024-01-15T13:49:44;13.20;43.80
70807;DHT22;58882;52.170;5.386;2024-01-15T13:52:11;13.20;43.40
70807;DHT22;58882;52.170;5.386;2024-01-15T13:54:39;13.20;43.30
70807;DHT22;58882;52.170;5.386;2024-01-15T13:57:17;13.10;43.20
70807;DHT22;58882;52.170;5.386;2024-01-15T13:59:45;13.10;43.20
70807;DHT22;58882;52.170;5.386;2024-01-15T14:02:11;13.00;43.10
70807;DHT22;58882;52.170;5.386;2024-01-15T14:04:42;13.00;43.20
70807;DHT22;58882;52.170;5.386;2024-01-15T14:07:09;12.90;43.10
70807;DHT22;58882;52.170;5.386;2024-01-15T14:09:36;12.80;43.00
70807;DHT22;58882;52.170;5.386;2024-01-15T14:12:04;12.80;43.10
70807;DHT22;58882;52.170;5.386;2024-01-15T14:14:33;12.70;43.00
70807;DHT22;58882;52.170;5.386;2024-01-15T14:17:00;12.70;43.00
70807;DHT22;58882;52.170;5.386;2024-01-15T14:19:27;12.70;43.00
70807;DHT22;58882;52.170;5.386;2024-01-15T14:21:54;12.70;42.90
70807;DHT22;58882;52.170;5.386;2024-01-15T14:24:22;12.60;42.90
70807;DHT22;58882;52.170;5.386;2024-01-15T14:26:49;12.60;42.90
70807;DHT22;58882;52.170;5.386;2024-01-15T14:29:16;12.60;43.00
70807;DHT22;58882;52.170;5.386;2024-01-15T14:31:45;12.60;43.00
70807;DHT22;58882;52.170;5.386;2024-01-15T14:34:13;12.60;43.10
70807;DHT22;58882;52.170;5.386;2024-01-15T14:36:40;12.70;43.00
70807;DHT22;58882;52.170;5.386;2024-01-15T14:39:07;12.70;42.90
70807;DHT22;58882;52.170;5.386;2024-01-15T14:41:34;12.80;42.80
70807;DHT22;58882;52.170;5.386;2024-01-15T14:44:00;12.80;42.60
70807;DHT22;58882;52.170;5.386;2024-01-15T14:46:27;12.70;42.60
70807;DHT22;58882;52.170;5.386;2024-01-15T14:48:54;12.70;42.70
70807;DHT22;58882;52.170;5.386;2024-01-15T14:51:21;12.70;42.70
70807;DHT22;58882;52.170;5.386;2024-01-15T14:53:48;12.70;42.70
70807;DHT22;58882;52.170;5.386;2024-01-15T14:56:15;12.70;42.70
70807;DHT22;58882;52.170;5.386;2024-01-15T14:58:44;12.80;42.90
70807;DHT22;58882;52.170;5.386;2024-01-15T15:01:12;12.80;42.80
70807;DHT22;58882;52.170;5.386;2024-01-15T15:03:39;12.80;42.60
70807;DHT22;58882;52.170;5.386;2024-01-15T15:06:06;12.90;42.50
70807;DHT22;58882;52.170;5.386;2024-01-15T15:08:37;12.90;42.60
70807;DHT22;58882;52.170;5.386;2024-01-15T15:11:04;12.90;42.70
70807;DHT22;58882;52.170;5.386;2024-01-15T15:13:31;13.10;42.80
70807;DHT22;58882;52.170;5.386;2024-01-15T15:16:11;13.10;42.80
70807;DHT22;58882;52.170;5.386;2024-01-15T15:18:38;13.20;42.40
70807;DHT22;58882;52.170;5.386;2024-01-15T15:21:05;13.20;42.10
70807;DHT22;58882;52.170;5.386;2024-01-15T15:23:34;13.20;42.00
70807;DHT22;58882;52.170;5.386;2024-01-15T15:26:01;13.10;41.90
70807;DHT22;58882;52.170;5.386;2024-01-15T15:28:28;13.10;41.80
70807;DHT22;58882;52.170;5.386;2024-01-15T15:30:55;13.00;41.70
70807;DHT22;58882;52.170;5.386;2024-01-15T15:33:23;12.90;41.60
70807;DHT22;58882;52.170;5.386;2024-01-15T15:35:51;12.80;41.70
70807;DHT22;58882;52.170;5.386;2024-01-15T15:38:18;12.80;41.70